Time;durP1;ratioP1;P1;durP2;ratioP2;P2;SDS_P1;SDS_P2;PMS_P1;PMS_P2;Temp;Humidity;BMP_temperature;BMP_pressure;BME280_temperature;BME280_humidity;BME280_pressure;Samples;Min_cycle;Max_cycle;Signal;HPM_P1;HPM_P2
2022/12/19 11:26:32;;;;;;;;;;;;;;;;;;5036820;27;19921;-53
2022/12/19 11:28:58;;;;;;;;;;;;;;;;;;4990872;28;19917;-51
2022/12/19 11:31:25;;;;;;;;;;;;;;;;;;5011787;28;20125;-52
2022/12/19 11:33:51;;;;;;;;;;;;;;;;;;4959206;28;19925;-51
2022/12/19 11:36:17;;;;;;;;;;;;;;;;;;4970393;28;20378;-52
2022/12/19 11:38:43;;;;;;;;;;;;;;;;;;4972340;28;19925;-54
2022/12/19 11:41:09;;;;;;;;;;;;;;;;;;4967808;28;19991;-52
2022/12/19 11:43:35;;;;;;;;;;;;;;;;;;4979740;28;19921;-52
2022/12/19 11:46:00;;;;;;;;;;;;;;;;;;4986164;28;20554;-53
2022/12/19 11:48:26;;;;;;;;;;;;;;;;;;4960386;28;19965;-54
2022/12/19 11:50:56;;;;;;;;;;;;;;;;;;4985821;28;20099;-52
2022/12/19 11:53:22;;;;;;;;;;;;;;;;;;4984136;28;20365;-52
2022/12/19 11:55:48;;;;;;;;;;;;;;;;;;4987688;28;19921;-53
2022/12/19 11:58:14;;;;;;;;;;;;;;;;;;4993681;28;19917;-54
2022/12/19 12:00:40;;;;;;;;;;;;;;;;;;4986101;28;19917;-52
2022/12/19 12:03:06;;;;;;;;;;;;;;;;;;4980348;28;20012;-53
2022/12/19 12:05:35;;;;;;;;;;;;;;;;;;4963171;28;20066;-54
2022/12/19 12:08:01;;;;;;;;;;;;;;;;;;4970701;28;19936;-53
2022/12/19 12:10:27;;;;;;;;;;;;;;;;;;4972859;28;19982;-54
2022/12/19 12:13:18;;;;;;;571.03;246.03;;;;;;;;;;4977683;28;20025;-54
2022/12/19 12:15:55;;;;;;;428.13;179.77;;;;;;;;;;5008634;28;20214;-52
2022/12/19 12:18:27;;;;;;;502.50;217.83;;;;;;;;;;4985727;28;20216;-52
2022/12/19 12:21:05;;;;;;;694.47;302.83;;;;;;;;;;4940422;28;20665;-51
2022/12/19 12:23:51;;;;;;;537.00;225.97;;;;;;;;;;4972211;28;20237;-51
2022/12/19 12:26:28;;;;;;;535.90;230.57;;;;;;;;;;4970222;28;21802;-52
2022/12/19 12:29:13;;;;;;;519.30;214.17;;;;;;;;;;4970781;28;20224;-51
2022/12/19 12:31:45;;;;;;;347.60;152.40;;;;;;;;;;4973738;28;20615;-51
2022/12/19 12:34:14;;;;;;;559.00;233.70;;;;;;;;;;4982049;28;20211;-53
2022/12/19 12:36:50;;;;;;;419.80;181.90;;;;;;;;;;4964234;28;20894;-53
2022/12/19 12:39:21;;;;;;;529.57;219.27;;;;;;;;;;4966048;28;20224;-53
2022/12/19 12:42:05;;;;;;;486.45;220.95;;;;;;;;;;4966126;23;20532;-47
2022/12/19 12:44:35;;;;;;;520.40;232.30;;;;;;;;;;4947082;28;20298;-47
2022/12/19 12:47:21;;;;;;;462.50;204.97;;;;;;;;;;4949013;28;20224;-47
2022/12/19 12:49:53;;;;;;;426.90;197.07;;;;;;;;;;4946545;28;20188;-47
2022/12/19 12:52:21;;;;;;;409.23;185.97;;;;;;;;;;4949584;28;20234;-47
2022/12/19 12:54:48;;;;;;;345.60;156.17;;;;;;;;;;4970374;28;20359;-47
2022/12/19 12:57:33;;;;;;;427.33;186.00;;;;;;;;;;4960732;28;20744;-47
2022/12/19 13:00:18;;;;;;;430.50;187.50;;;;;;;;;;4969305;28;20216;-48
2022/12/19 13:02:45;;;;;;;454.05;190.80;;;;;;;;;;4974394;28;20231;-47
2022/12/19 13:05:29;;;;;;;331.73;149.80;;;;;;;;;;4968407;28;20602;-48
2022/12/19 13:07:55;;;;;;;466.60;203.67;;;;;;;;;;4969278;28;20380;-47
2022/12/19 13:10:26;;;;;;;532.97;238.60;;;;;;;;;;4962012;28;20592;-47
2022/12/19 13:13:01;;;;;;;479.43;215.30;;;;;;;;;;4972739;28;20217;-48
2022/12/19 13:15:27;;;;;;;456.97;199.47;;;;;;;;;;4967556;28;20267;-48
2022/12/19 13:17:53;;;;;;;463.17;217.60;;;;;;;;;;4942946;28;20362;-48
2022/12/19 13:20:25;;;;;;;459.23;200.70;;;;;;;;;;4952446;28;20851;-47
2022/12/19 13:22:57;;;;;;;444.03;200.67;;;;;;;;;;4959969;28;20249;-47
2022/12/19 13:25:26;;;;;;;542.30;242.23;;;;;;;;;;4942608;28;20268;-48
2022/12/19 13:27:57;;;;;;;431.20;203.73;;;;;;;;;;4946524;28;20225;-48
2022/12/19 13:30:24;;;;;;;454.33;207.00;;;;;;;;;;4969272;28;20344;-47
2022/12/19 13:32:50;;;;;;;369.27;169.77;;;;;;;;;;4956426;28;20418;-47
2022/12/19 13:35:16;;;;;;;534.57;229.07;;;;;;;;;;4943144;28;20322;-48
2022/12/19 13:37:43;;;;;;;525.07;227.27;;;;;;;;;;4950767;28;20630;-47
2022/12/19 13:40:27;;;;;;;491.87;218.10;;;;;;;;;;4951283;28;21544;-47
2022/12/19 13:45:57;;;;;;;430.93;187.57;;;;;;;;;;4953927;28;20233;-47
2022/12/19 13:48:27;;;;;;;348.00;155.03;;;;;;;;;;4964202;28;20553;-47
2022/12/19 13:50:54;;;;;;;473.70;213.97;;;;;;;;;;4948179;28;20217;-48
2022/12/19 13:53:22;;;;;;;452.57;199.73;;;;;;;;;;4938335;28;20218;-48
2022/12/19 13:55:48;;;;;;;541.93;236.03;;;;;;;;;;4948571;28;25860;-48
2022/12/19 13:58:26;;;;;;;485.43;215.27;;;;;;;;;;4968007;28;20952;-48
2022/12/19 14:00:52;;;;;;;499.13;220.97;;;;;;;;;;4968350;28;20238;-47
2022/12/19 14:03:22;;;;;;;388.50;170.00;;;;;;;;;;4970009;28;20220;-47
2022/12/19 14:05:48;;;;;;;456.10;208.20;;;;;;;;;;4957198;28;21167;-48
2022/12/19 14:08:18;;;;;;;421.30;194.30;;;;;;;;;;4941542;28;20303;-48
2022/12/19 14:10:45;;;;;;;483.93;215.00;;;;;;;;;;4951525;28;20193;-48
2022/12/19 14:16:01;;;;;;;430.73;193.70;;;;;;;;;;4928473;28;20379;-48
2022/12/19 14:18:31;;;;;;;465.90;204.23;;;;;;;;;;4963305;28;21576;-48
2022/12/19 14:21:17;;;;;;;456.73;203.30;;;;;;;;;;4948950;28;20221;-48
2022/12/19 14:23:43;;;;;;;534.33;235.00;;;;;;;;;;4953311;28;20306;-48
2022/12/19 14:26:12;;;;;;;470.20;213.33;;;;;;;;;;4964322;28;20267;-49
2022/12/19 14:28:43;;;;;;;451.93;203.47;;;;;;;;;;4953734;28;20371;-48
2022/12/19 14:31:13;;;;;;;396.83;174.10;;;;;;;;;;4961096;28;20205;-48
2022/12/19 14:33:41;;;;;;;526.10;229.53;;;;;;;;;;4959554;28;20406;-48
2022/12/19 14:36:07;;;;;;;393.97;169.37;;;;;;;;;;4948420;28;20228;-48
2022/12/19 14:38:34;;;;;;;566.90;252.17;;;;;;;;;;4962173;28;20227;-48
2022/12/19 14:41:00;;;;;;;417.33;184.10;;;;;;;;;;4949722;28;20401;-49
2022/12/19 14:43:39;;;;;;;566.27;254.67;;;;;;;;;;4948329;28;20299;-48
2022/12/19 14:46:20;;;;;;;463.73;206.03;;;;;;;;;;4960631;28;20302;-48
2022/12/19 14:48:49;;;;;;;560.10;252.00;;;;;;;;;;4968647;28;20553;-48
2022/12/19 14:51:19;;;;;;;477.23;207.57;;;;;;;;;;4958167;28;20228;-48
2022/12/19 14:54:04;;;;;;;633.07;286.33;;;;;;;;;;4953146;28;20911;-48
2022/12/19 14:56:33;;;;;;;434.10;187.37;;;;;;;;;;4953685;28;20233;-48
2022/12/19 14:58:59;;;;;;;507.50;216.17;;;;;;;;;;4961409;28;20520;-48
2022/12/19 15:01:27;;;;;;;524.57;235.17;;;;;;;;;;4950647;28;20220;-47
2022/12/19 15:04:13;;;;;;;422.40;192.47;;;;;;;;;;4940900;28;21255;-47
2022/12/19 15:06:42;;;;;;;488.47;220.03;;;;;;;;;;4940866;28;20213;-47
2022/12/19 15:09:13;;;;;;;576.77;258.93;;;;;;;;;;4946485;28;20737;-47
2022/12/19 15:14:31;;;;;;;587.20;264.37;;;;;;;;;;4943448;28;20232;-47
2022/12/19 15:17:13;;;;;;;459.67;209.63;;;;;;;;;;4964413;28;20320;-48
2022/12/19 15:19:39;;;;;;;561.73;248.53;;;;;;;;;;4955078;28;21775;-47
2022/12/19 15:22:05;;;;;;;465.33;204.20;;;;;;;;;;4956299;28;20633;-47
2022/12/19 15:24:31;;;;;;;520.83;227.23;;;;;;;;;;4967891;28;20303;-47
2022/12/19 15:26:57;;;;;;;430.47;195.43;;;;;;;;;;4958661;28;20534;-47
2022/12/19 15:29:24;;;;;;;442.37;192.47;;;;;;;;;;4957726;28;20220;-47
2022/12/19 15:31:51;;;;;;;519.70;223.23;;;;;;;;;;4968401;28;20215;-47
2022/12/19 15:34:24;;;;;;;381.20;173.20;;;;;;;;;;4969168;28;20601;-47
2022/12/19 15:36:50;;;;;;;573.23;250.87;;;;;;;;;;4967521;28;20200;-47
2022/12/19 15:39:17;;;;;;;447.43;195.43;;;;;;;;;;4962403;28;20213;-47
2022/12/19 15:41:43;;;;;;;435.97;188.40;;;;;;;;;;4960680;28;20799;-48
2022/12/19 15:44:14;;;;;;;367.60;158.10;;;;;;;;;;4959646;28;20225;-48
2022/12/19 15:46:40;;;;;;;565.67;253.40;;;;;;;;;;4966684;28;20224;-47
2022/12/19 15:49:09;;;;;;;555.30;253.27;;;;;;;;;;4961164;28;20767;-47
2022/12/19 15:51:35;;;;;;;454.20;195.13;;;;;;;;;;4974924;28;20220;-48
2022/12/19 15:54:01;;;;;;;569.27;257.23;;;;;;;;;;4940061;28;20557;-48
2022/12/19 15:56:30;;;;;;;438.37;193.10;;;;;;;;;;4935057;28;20900;-47
2022/12/19 15:58:58;;;;;;;382.50;154.03;;;;;;;;;;4921025;28;20600;-48
2022/12/19 16:01:25;;;;;;;453.83;171.23;;;;;;;;;;4942183;28;20363;-48
2022/12/19 16:03:51;;;;;;;411.57;184.30;;;;;;;;;;4963131;28;20713;-47
2022/12/19 16:06:17;;;;;;;512.07;227.03;;;;;;;;;;4943660;28;20250;-48
2022/12/19 16:08:43;;;;;;;524.80;231.93;;;;;;;;;;4950479;28;20236;-47
2022/12/19 16:11:20;;;;;;;523.63;239.60;;;;;;;;;;4940989;28;20512;-47
2022/12/19 16:13:50;;;;;;;426.80;185.87;;;;;;;;;;4945275;28;20725;-47
2022/12/19 16:16:16;;;;;;;509.33;223.53;;;;;;;;;;4957426;28;20682;-48
2022/12/19 16:18:43;;;;;;;439.10;188.20;;;;;;;;;;4971405;28;20244;-47
2022/12/19 16:21:21;;;;;;;635.70;281.87;;;;;;;;;;4942717;28;20331;-47
2022/12/19 16:23:47;;;;;;;453.90;201.60;;;;;;;;;;4942962;28;20679;-47
2022/12/19 16:26:34;;;;;;;475.43;211.60;;;;;;;;;;4946078;28;20268;-47
2022/12/19 16:29:00;;;;;;;438.33;193.67;;;;;;;;;;4943828;28;20236;-47
2022/12/19 16:31:27;;;;;;;662.90;293.40;;;;;;;;;;4945511;28;20912;-48
2022/12/19 16:33:53;;;;;;;428.97;187.80;;;;;;;;;;4935818;28;20229;-47
2022/12/19 16:36:19;;;;;;;396.40;175.90;;;;;;;;;;4950001;28;20229;-46
2022/12/19 16:38:45;;;;;;;529.53;233.10;;;;;;;;;;4940996;28;20340;-47
2022/12/19 16:41:15;;;;;;;374.37;173.93;;;;;;;;;;4946793;28;20709;-47
2022/12/19 16:43:43;;;;;;;541.17;241.50;;;;;;;;;;4942653;28;20220;-48
2022/12/19 16:46:15;;;;;;;349.07;157.10;;;;;;;;;;4959643;28;20438;-48
2022/12/19 16:48:41;;;;;;;486.07;207.93;;;;;;;;;;4949442;28;20985;-47
2022/12/19 16:51:15;;;;;;;407.67;183.07;;;;;;;;;;4954914;28;20380;-48
2022/12/19 16:53:41;;;;;;;720.53;331.60;;;;;;;;;;4937851;28;20949;-48
2022/12/19 16:56:13;;;;;;;601.13;261.27;;;;;;;;;;4931744;28;20293;-48
2022/12/19 16:58:39;;;;;;;544.83;245.67;;;;;;;;;;4941139;28;20379;-47
2022/12/19 17:01:06;;;;;;;483.30;217.57;;;;;;;;;;4946307;28;20341;-47
2022/12/19 17:03:35;;;;;;;354.43;153.87;;;;;;;;;;4942150;28;20827;-48
2022/12/19 17:06:01;;;;;;;486.77;210.83;;;;;;;;;;4944991;28;20225;-48
2022/12/19 17:08:27;;;;;;;520.67;231.03;;;;;;;;;;4956418;28;20717;-48
2022/12/19 17:10:53;;;;;;;521.13;236.43;;;;;;;;;;4939666;28;20281;-48
2022/12/19 17:13:20;;;;;;;639.53;283.13;;;;;;;;;;4944732;28;20201;-47
2022/12/19 17:15:46;;;;;;;421.77;181.67;;;;;;;;;;4941568;28;20409;-48
2022/12/19 17:18:14;;;;;;;533.40;237.03;;;;;;;;;;4951601;28;20228;-48
2022/12/19 17:20:42;;;;;;;406.83;177.73;;;;;;;;;;4966973;28;20352;-48
2022/12/19 17:23:16;;;;;;;512.43;228.03;;;;;;;;;;4958389;28;20221;-48
2022/12/19 17:25:42;;;;;;;375.67;165.50;;;;;;;;;;4953647;28;20185;-48
2022/12/19 17:28:08;;;;;;;472.77;203.73;;;;;;;;;;4962858;28;20197;-48
2022/12/19 17:30:35;;;;;;;365.70;159.17;;;;;;;;;;4960796;28;20292;-47
2022/12/19 17:33:04;;;;;;;434.30;190.40;;;;;;;;;;4965368;28;20224;-47
2022/12/19 17:35:33;;;;;;;360.57;162.40;;;;;;;;;;4966473;28;20224;-47
2022/12/19 17:38:00;;;;;;;508.27;225.43;;;;;;;;;;4956811;28;20932;-47
2022/12/19 17:40:28;;;;;;;428.37;187.90;;;;;;;;;;4949033;28;20193;-47
2022/12/19 17:42:54;;;;;;;340.27;151.87;;;;;;;;;;4952924;28;20677;-47
2022/12/19 17:45:21;;;;;;;426.30;188.00;;;;;;;;;;4956600;28;20236;-48
2022/12/19 17:47:47;;;;;;;348.87;157.67;;;;;;;;;;4984098;28;22635;-47
2022/12/19 17:50:20;;;;;;;480.17;213.13;;;;;;;;;;4983385;28;20414;-48
2022/12/19 17:52:46;;;;;;;474.37;203.20;;;;;;;;;;4966498;28;20303;-47
2022/12/19 17:55:23;;;;;;;421.60;185.73;;;;;;;;;;4964552;28;20284;-47
2022/12/19 17:57:49;;;;;;;313.57;138.57;;;;;;;;;;4967613;28;20532;-47
2022/12/19 18:00:20;;;;;;;372.00;155.27;;;;;;;;;;4986408;28;20213;-47
2022/12/19 18:02:47;;;;;;;408.37;183.20;;;;;;;;;;4962304;28;20898;-47
2022/12/19 18:05:21;;;;;;;488.13;212.17;;;;;;;;;;4972718;28;20999;-48
2022/12/19 18:07:49;;;;;;;324.40;150.83;;;;;;;;;;4961776;28;20574;-47
2022/12/19 18:10:16;;;;;;;349.30;151.30;;;;;;;;;;4965297;28;21420;-47
2022/12/19 18:12:42;;;;;;;339.00;154.57;;;;;;;;;;4963227;28;20327;-48
2022/12/19 18:15:08;;;;;;;374.53;165.57;;;;;;;;;;4972745;28;20307;-47
2022/12/19 18:17:34;;;;;;;505.53;212.07;;;;;;;;;;4965168;28;20217;-47
2022/12/19 18:20:02;;;;;;;405.23;175.47;;;;;;;;;;4964674;28;20577;-48
2022/12/19 18:22:28;;;;;;;534.53;237.57;;;;;;;;;;4954275;28;20182;-47
2022/12/19 18:24:55;;;;;;;443.20;191.83;;;;;;;;;;4950594;28;20233;-47
2022/12/19 18:27:21;;;;;;;549.93;244.20;;;;;;;;;;4943122;28;20246;-47
2022/12/19 18:29:47;;;;;;;592.37;263.53;;;;;;;;;;4944460;28;20234;-48
2022/12/19 18:32:17;;;;;;;439.77;190.73;;;;;;;;;;4970288;28;20221;-47
2022/12/19 18:34:44;;;;;;;501.47;222.33;;;;;;;;;;4954106;28;20213;-49
2022/12/19 18:37:14;;;;;;;501.17;216.80;;;;;;;;;;4945020;28;20204;-47
2022/12/19 18:39:40;;;;;;;457.80;201.07;;;;;;;;;;4969179;28;20212;-48
2022/12/19 18:42:18;;;;;;;358.63;140.90;;;;;;;;;;4986791;23;20275;-54
2022/12/19 18:44:44;;;;;;;460.00;177.87;;;;;;;;;;4954860;28;20378;-54
2022/12/19 18:47:19;;;;;;;421.53;164.17;;;;;;;;;;4961042;28;20362;-54
2022/12/19 18:49:45;;;;;;;317.17;126.50;;;;;;;;;;4960906;28;20644;-54
2022/12/19 18:52:11;;;;;;;369.03;148.53;;;;;;;;;;4962276;28;20186;-53
2022/12/19 18:54:37;;;;;;;412.27;167.47;;;;;;;;;;4968792;28;20229;-53
2022/12/19 18:57:03;;;;;;;445.47;170.50;;;;;;;;;;4954511;28;20285;-52
2022/12/19 18:59:29;;;;;;;343.00;142.27;;;;;;;;;;4959117;28;20213;-53
2022/12/19 19:01:55;;;;;;;468.87;190.07;;;;;;;;;;4949358;28;20338;-52
2022/12/19 19:04:21;;;;;;;381.50;155.90;;;;;;;;;;4946431;28;20713;-52
2022/12/19 19:06:49;;;;;;;346.07;137.73;;;;;;;;;;4951895;28;21216;-52
2022/12/19 19:09:16;;;;;;;314.27;127.80;;;;;;;;;;4942467;28;20220;-52
2022/12/19 19:11:42;;;;;;;403.40;157.93;;;;;;;;;;4955248;28;21231;-52
2022/12/19 19:14:10;;;;;;;491.47;201.37;;;;;;;;;;4947943;28;20225;-52
2022/12/19 19:16:36;;;;;;;377.97;147.30;;;;;;;;;;4947857;28;20831;-52
2022/12/19 19:19:04;;;;;;;423.17;172.10;;;;;;;;;;4954699;28;20638;-52
2022/12/19 19:21:32;;;;;;;353.10;143.30;;;;;;;;;;4962184;28;20213;-53
2022/12/19 19:24:10;;;;;;;400.07;155.77;;;;;;;;;;4953632;28;20224;-53
2022/12/19 19:26:36;;;;;;;407.70;154.90;;;;;;;;;;4952693;28;20225;-58
2022/12/19 19:29:02;;;;;;;389.77;152.30;;;;;;;;;;4968981;28;20934;-52
2022/12/19 19:31:29;;;;;;;387.97;156.33;;;;;;;;;;4970368;28;20186;-52
2022/12/19 19:33:57;;;;;;;353.83;142.43;;;;;;;;;;4954496;28;20215;-52
2022/12/19 19:36:29;;;;;;;461.30;176.63;;;;;;;;;;4956627;28;20237;-52
2022/12/19 19:38:55;;;;;;;364.33;150.40;;;;;;;;;;4960466;28;21087;-52
2022/12/19 19:41:28;;;;;;;409.87;160.27;;;;;;;;;;4965595;28;20229;-52
2022/12/19 19:43:54;;;;;;;297.70;120.53;;;;;;;;;;4964005;28;20229;-53
2022/12/19 19:46:20;;;;;;;308.30;130.53;;;;;;;;;;4965197;28;20709;-52
2022/12/19 19:48:46;;;;;;;386.30;157.53;;;;;;;;;;4970824;28;20225;-52
2022/12/19 19:51:14;;;;;;;444.67;168.77;;;;;;;;;;4956359;28;20315;-52
2022/12/19 19:53:40;;;;;;;512.40;199.20;;;;;;;;;;4961230;28;20690;-53
2022/12/19 19:56:06;;;;;;;375.77;157.27;;;;;;;;;;4946341;28;20284;-52
2022/12/19 19:58:33;;;;;;;511.63;198.97;;;;;;;;;;4949666;28;20200;-52
2022/12/19 20:00:58;;;;;;;352.13;140.40;;;;;;;;;;4960465;28;20763;-52
2022/12/19 20:03:25;;;;;;;436.17;177.50;;;;;;;;;;4953189;28;20231;-51
2022/12/19 20:05:58;;;;;;;344.53;140.87;;;;;;;;;;4954208;28;20720;-52
2022/12/19 20:08:24;;;;;;;342.97;131.67;;;;;;;;;;4960325;28;20553;-52
2022/12/19 20:10:54;;;;;;;367.50;143.87;;;;;;;;;;4971040;28;20518;-53
2022/12/19 20:13:20;;;;;;;332.90;132.80;;;;;;;;;;4972098;28;20587;-52
2022/12/19 20:15:47;;;;;;;484.80;183.50;;;;;;;;;;4970444;28;21811;-52
2022/12/19 20:18:13;;;;;;;333.50;137.43;;;;;;;;;;4970595;28;20217;-52
2022/12/19 20:20:40;;;;;;;377.33;148.13;;;;;;;;;;4965669;28;20221;-52
2022/12/19 20:23:06;;;;;;;523.00;197.13;;;;;;;;;;4953497;28;20217;-53
2022/12/19 20:25:34;;;;;;;432.77;172.43;;;;;;;;;;4957496;28;20201;-52
2022/12/19 20:28:01;;;;;;;336.90;139.90;;;;;;;;;;4965357;28;20216;-52
2022/12/19 20:30:27;;;;;;;337.33;133.93;;;;;;;;;;4962258;28;20737;-53
2022/12/19 20:32:53;;;;;;;400.63;152.07;;;;;;;;;;4978703;28;20217;-52
2022/12/19 20:35:22;;;;;;;358.17;143.70;;;;;;;;;;4970180;28;20237;-52
2022/12/19 20:37:48;;;;;;;452.83;171.50;;;;;;;;;;4965898;28;20190;-52
2022/12/19 20:40:15;;;;;;;328.17;127.37;;;;;;;;;;4968974;28;20197;-52
2022/12/19 20:42:41;;;;;;;360.63;144.30;;;;;;;;;;4952966;28;20264;-52
2022/12/19 20:45:07;;;;;;;416.43;166.63;;;;;;;;;;4954176;28;20221;-53
2022/12/19 20:47:33;;;;;;;419.30;167.10;;;;;;;;;;4966220;28;20221;-52
2022/12/19 20:49:59;;;;;;;357.70;142.97;;;;;;;;;;4952832;28;20302;-52
2022/12/19 20:52:25;;;;;;;492.03;199.77;;;;;;;;;;4944002;28;22999;-52
2022/12/19 20:54:51;;;;;;;405.67;162.30;;;;;;;;;;4957651;28;20739;-53
2022/12/19 20:57:17;;;;;;;436.90;174.73;;;;;;;;;;4948897;28;20897;-51
2022/12/19 20:59:43;;;;;;;345.40;139.50;;;;;;;;;;4963524;28;20336;-52
2022/12/19 21:02:10;;;;;;;397.93;164.17;;;;;;;;;;4946846;28;20213;-52
2022/12/19 21:04:36;;;;;;;328.80;136.93;;;;;;;;;;4960031;28;20208;-52
2022/12/19 21:07:02;;;;;;;437.30;172.33;;;;;;;;;;4955752;28;20230;-52
2022/12/19 21:09:28;;;;;;;363.97;143.87;;;;;;;;;;4951924;28;20312;-52
2022/12/19 21:11:54;;;;;;;439.40;165.27;;;;;;;;;;4966586;28;20245;-52
2022/12/19 21:14:20;;;;;;;351.13;148.17;;;;;;;;;;4969999;28;20408;-53
2022/12/19 21:16:46;;;;;;;464.67;185.23;;;;;;;;;;4953997;28;20213;-52
2022/12/19 21:19:12;;;;;;;472.30;187.33;;;;;;;;;;4959768;28;20272;-52
2022/12/19 21:21:38;;;;;;;423.83;161.33;;;;;;;;;;4969696;28;20241;-52
2022/12/19 21:24:05;;;;;;;283.60;122.87;;;;;;;;;;4964834;28;20303;-52
2022/12/19 21:26:31;;;;;;;476.70;189.43;;;;;;;;;;4964410;28;20304;-52
2022/12/19 21:28:58;;;;;;;437.33;158.87;;;;;;;;;;4959960;28;20299;-52
2022/12/19 21:31:26;;;;;;;398.07;152.90;;;;;;;;;;4962506;28;20200;-52
2022/12/19 21:33:59;;;;;;;444.00;166.60;;;;;;;;;;4963176;28;20483;-53
2022/12/19 21:36:25;;;;;;;436.20;170.73;;;;;;;;;;4963015;28;20468;-53
2022/12/19 21:38:53;;;;;;;332.87;137.27;;;;;;;;;;4970399;28;20217;-52
2022/12/19 21:41:19;;;;;;;294.77;119.83;;;;;;;;;;4963804;28;20223;-52
2022/12/19 21:43:46;;;;;;;285.47;114.90;;;;;;;;;;4973067;28;20537;-52
2022/12/19 21:46:13;;;;;;;437.17;171.63;;;;;;;;;;4971240;28;20190;-53
2022/12/19 21:48:40;;;;;;;362.50;137.50;;;;;;;;;;4973433;28;20687;-53
2022/12/19 21:51:07;;;;;;;478.33;192.87;;;;;;;;;;4955266;28;20525;-52
2022/12/19 21:53:34;;;;;;;378.73;154.77;;;;;;;;;;4968328;28;20790;-53
2022/12/19 21:56:24;;;;;;;334.43;139.57;;;;;;;;;;4964119;28;20229;-52
2022/12/19 21:58:51;;;;;;;365.47;145.23;;;;;;;;;;4959147;28;20689;-52
2022/12/19 22:01:17;;;;;;;262.23;111.90;;;;;;;;;;4970137;28;20182;-53
2022/12/19 22:03:43;;;;;;;436.60;174.47;;;;;;;;;;4972675;28;20250;-52
2022/12/19 22:06:13;;;;;;;362.80;142.37;;;;;;;;;;4970049;28;20217;-52
2022/12/19 22:08:39;;;;;;;414.20;153.93;;;;;;;;;;4963400;28;20221;-53
2022/12/19 22:11:11;;;;;;;261.90;110.67;;;;;;;;;;4973870;28;20216;-52
2022/12/19 22:13:37;;;;;;;404.80;154.87;;;;;;;;;;4968411;28;20205;-53
2022/12/19 22:16:03;;;;;;;371.23;142.63;;;;;;;;;;4970817;28;20802;-52
2022/12/19 22:18:29;;;;;;;413.60;158.87;;;;;;;;;;4967464;28;20955;-53
2022/12/19 22:20:58;;;;;;;348.67;139.87;;;;;;;;;;4965536;28;20634;-53
2022/12/19 22:23:25;;;;;;;330.57;136.00;;;;;;;;;;4969886;28;20214;-53
2022/12/19 22:25:59;;;;;;;458.27;178.50;;;;;;;;;;4957021;28;21002;-52
2022/12/19 22:28:25;;;;;;;319.03;134.07;;;;;;;;;;4962617;28;20185;-53
2022/12/19 22:30:51;;;;;;;475.13;189.30;;;;;;;;;;4964144;28;20698;-53
2022/12/19 22:33:17;;;;;;;346.30;139.63;;;;;;;;;;4956556;28;20218;-53
2022/12/19 22:35:43;;;;;;;283.50;119.17;;;;;;;;;;4974285;28;20217;-53
2022/12/19 22:38:09;;;;;;;405.63;161.23;;;;;;;;;;4967478;28;20985;-53
2022/12/19 22:40:35;;;;;;;381.07;150.47;;;;;;;;;;4967417;28;20190;-53
2022/12/19 22:43:04;;;;;;;384.07;155.47;;;;;;;;;;4964277;28;20217;-53
2022/12/19 22:45:30;;;;;;;336.23;135.87;;;;;;;;;;4966742;28;20316;-53
2022/12/19 22:47:56;;;;;;;391.63;154.90;;;;;;;;;;4975478;28;20411;-54
2022/12/19 22:50:22;;;;;;;355.70;148.03;;;;;;;;;;4973295;28;20229;-52
2022/12/19 22:52:48;;;;;;;371.67;154.50;;;;;;;;;;4974795;28;20304;-53
2022/12/19 22:55:14;;;;;;;302.73;126.47;;;;;;;;;;4972800;28;20731;-53
2022/12/19 22:57:40;;;;;;;320.90;129.90;;;;;;;;;;4975846;28;20229;-53
2022/12/19 23:00:09;;;;;;;393.30;163.10;;;;;;;;;;4971041;28;20234;-52
2022/12/19 23:02:37;;;;;;;313.20;127.83;;;;;;;;;;4964808;28;20293;-53
2022/12/19 23:05:03;;;;;;;375.73;150.47;;;;;;;;;;4973130;28;20276;-53
2022/12/19 23:07:30;;;;;;;337.63;135.93;;;;;;;;;;4972667;28;20189;-53
2022/12/19 23:09:56;;;;;;;359.23;148.17;;;;;;;;;;4965990;28;20232;-53
2022/12/19 23:12:22;;;;;;;373.13;150.00;;;;;;;;;;4969442;28;20233;-53
2022/12/19 23:14:48;;;;;;;362.27;148.37;;;;;;;;;;4971894;28;22905;-53
2022/12/19 23:17:14;;;;;;;237.73;104.13;;;;;;;;;;4969068;28;20248;-53
2022/12/19 23:19:40;;;;;;;336.30;140.80;;;;;;;;;;4967555;28;20674;-52
2022/12/19 23:22:06;;;;;;;331.57;132.87;;;;;;;;;;4975815;28;20174;-53
2022/12/19 23:24:32;;;;;;;274.70;116.23;;;;;;;;;;4970671;28;20232;-53
2022/12/19 23:26:58;;;;;;;353.97;142.10;;;;;;;;;;4970065;28;20205;-53
2022/12/19 23:29:24;;;;;;;355.23;139.40;;;;;;;;;;4975013;28;20399;-52
2022/12/19 23:31:50;;;;;;;337.00;139.63;;;;;;;;;;4971573;28;20214;-53
2022/12/19 23:34:17;;;;;;;330.53;134.83;;;;;;;;;;4961535;28;20205;-53
2022/12/19 23:36:43;;;;;;;287.07;122.20;;;;;;;;;;4968908;28;20320;-53
2022/12/19 23:39:09;;;;;;;366.23;146.97;;;;;;;;;;4974035;28;20299;-53
2022/12/19 23:41:35;;;;;;;327.80;134.17;;;;;;;;;;4969684;28;20244;-53
2022/12/19 23:44:04;;;;;;;437.97;175.57;;;;;;;;;;4967302;28;20711;-53
2022/12/19 23:46:30;;;;;;;328.20;136.27;;;;;;;;;;4965161;28;20571;-52
2022/12/19 23:48:56;;;;;;;331.63;136.60;;;;;;;;;;4955786;28;20260;-53
2022/12/19 23:51:24;;;;;;;339.07;133.53;;;;;;;;;;4964249;28;20478;-53
2022/12/19 23:53:50;;;;;;;446.50;186.20;;;;;;;;;;4954341;28;20320;-53
2022/12/19 23:56:18;;;;;;;465.40;189.47;;;;;;;;;;4957792;28;20371;-53
2022/12/19 23:58:44;;;;;;;396.20;162.60;;;;;;;;;;4958573;28;20189;-53
